createdAt,value
2022-10-19T00:02:55.644Z,16.50
2022-10-19T00:06:57.542Z,16.40
2022-10-19T00:11:01.456Z,16.60
2022-10-19T00:15:04.766Z,16.60
2022-10-19T00:19:13.473Z,16.30
2022-10-19T00:23:15.414Z,16.20
2022-10-19T00:27:17.256Z,16.30
2022-10-19T00:31:19.100Z,16.30
2022-10-19T00:35:20.961Z,16.10
2022-10-19T00:39:22.900Z,15.80
2022-10-19T00:43:30.279Z,15.70
2022-10-19T00:47:32.764Z,15.70
2022-10-19T00:51:36.962Z,16.00
2022-10-19T00:55:40.349Z,16.20
2022-10-19T00:59:44.473Z,16.30
2022-10-19T01:03:46.675Z,16.00
2022-10-19T01:07:49.902Z,16.00
2022-10-19T01:11:51.674Z,16.10
2022-10-19T01:16:20.491Z,16.00
2022-10-19T01:20:37.154Z,16.10
2022-10-19T01:24:52.030Z,16.00
2022-10-19T01:29:30.951Z,15.90
2022-10-19T01:33:35.655Z,16.10
2022-10-19T01:37:56.630Z,15.90
2022-10-19T01:42:08.725Z,16.00
2022-10-19T01:46:42.580Z,15.90
2022-10-19T01:50:49.226Z,16.00
2022-10-19T01:54:55.440Z,16.10
2022-10-19T01:59:01.015Z,16.20
2022-10-19T02:03:05.470Z,16.30
2022-10-19T02:07:09.986Z,16.20
2022-10-19T02:11:11.998Z,15.90
2022-10-19T02:15:17.714Z,15.90
2022-10-19T02:19:21.387Z,15.70
2022-10-19T02:23:26.740Z,15.60
2022-10-19T02:27:28.578Z,15.50
2022-10-19T02:31:30.628Z,15.40
2022-10-19T02:35:32.928Z,15.10
2022-10-19T02:39:34.965Z,14.90
2022-10-19T02:43:39.223Z,14.70
2022-10-19T02:47:54.986Z,14.70
2022-10-19T02:52:03.014Z,14.60
2022-10-19T02:56:04.930Z,14.60
2022-10-19T03:00:08.404Z,12.40
2022-10-19T03:04:10.291Z,14.10
2022-10-19T03:08:12.109Z,14.40
2022-10-19T03:12:15.127Z,14.60
2022-10-19T03:16:16.951Z,14.30
2022-10-19T03:20:18.799Z,14.20
2022-10-19T03:24:20.754Z,14.30
2022-10-19T03:28:22.564Z,14.30
2022-10-19T03:32:24.409Z,14.20
2022-10-19T03:36:28.521Z,14.20
2022-10-19T03:40:30.344Z,14.10
2022-10-19T03:44:32.191Z,14.10
2022-10-19T03:48:34.277Z,14.50
2022-10-19T03:52:36.207Z,14.40
2022-10-19T03:56:38.422Z,14.40
2022-10-19T04:00:40.334Z,14.50
2022-10-19T04:04:42.251Z,14.30
2022-10-19T04:08:45.125Z,14.20
2022-10-19T04:12:50.500Z,14.10
2022-10-19T04:16:55.522Z,14.20
2022-10-19T04:21:03.412Z,14.40
2022-10-19T04:25:06.050Z,14.10
2022-10-19T04:29:08.233Z,14.20
2022-10-19T04:33:10.174Z,13.90
2022-10-19T04:37:12.084Z,13.80
2022-10-19T04:41:16.109Z,14.30
2022-10-19T04:45:18.231Z,13.70
2022-10-19T04:49:20.591Z,13.80
2022-10-19T04:57:24.370Z,13.70
2022-10-19T05:01:28.321Z,13.60
2022-10-19T05:05:30.171Z,15.00
2022-10-19T05:09:32.029Z,13.90
2022-10-19T05:13:34.540Z,14.00
2022-10-19T05:17:36.802Z,14.00
2022-10-19T05:21:38.838Z,13.80
2022-10-19T05:25:40.641Z,13.80
2022-10-19T05:29:42.482Z,14.00
2022-10-19T05:33:45.021Z,14.20
2022-10-19T05:37:46.808Z,14.40
2022-10-19T05:41:49.249Z,14.50
2022-10-19T05:45:51.098Z,14.40
2022-10-19T05:49:52.918Z,14.40
2022-10-19T05:53:56.303Z,14.60
2022-10-19T05:57:58.138Z,14.90
2022-10-19T06:02:00.021Z,15.00
2022-10-19T06:06:07.176Z,15.10
2022-10-19T06:10:10.341Z,15.20
2022-10-19T06:14:14.489Z,15.30
2022-10-19T06:18:16.343Z,15.50
2022-10-19T06:22:19.019Z,15.50
2022-10-19T06:26:21.645Z,15.80
2022-10-19T06:30:23.579Z,15.80
2022-10-19T06:34:25.631Z,16.00
2022-10-19T06:38:27.532Z,16.20
2022-10-19T06:42:29.525Z,16.50
2022-10-19T06:46:32.338Z,16.70
2022-10-19T06:50:34.254Z,16.80
2022-10-19T06:54:36.117Z,16.90
2022-10-19T06:58:39.334Z,16.90
2022-10-19T07:02:41.178Z,16.90
2022-10-19T07:06:42.998Z,17.00
2022-10-19T07:10:44.834Z,17.10
2022-10-19T07:14:47.995Z,17.20
2022-10-19T07:18:51.739Z,17.20
2022-10-19T07:22:53.615Z,17.20
2022-10-19T07:26:56.299Z,17.30
2022-10-19T07:30:58.173Z,17.40
2022-10-19T07:35:00.011Z,17.40
2022-10-19T07:39:03.512Z,17.40
2022-10-19T07:43:05.498Z,17.20
2022-10-19T07:47:07.351Z,17.10
2022-10-19T07:51:11.359Z,17.00
2022-10-19T07:55:13.223Z,17.00
2022-10-19T07:59:17.292Z,16.90
2022-10-19T08:04:13.814Z,17.00
2022-10-19T08:07:41.105Z,16.90
2022-10-19T08:11:42.963Z,16.70
2022-10-19T08:15:44.836Z,16.70
2022-10-19T08:19:47.218Z,16.80
2022-10-19T08:23:49.143Z,16.90
2022-10-19T08:27:50.973Z,16.90
2022-10-19T08:31:53.200Z,17.00
2022-10-19T08:35:55.123Z,18.70
2022-10-19T08:39:57.016Z,17.10
2022-10-19T08:44:10.128Z,17.40
2022-10-19T08:48:17.729Z,17.80
2022-10-19T08:52:24.337Z,18.00
2022-10-19T08:56:51.506Z,18.20
2022-10-19T09:01:37.738Z,18.30
2022-10-19T09:05:42.777Z,18.50
2022-10-19T09:09:54.523Z,18.70
2022-10-19T09:14:16.508Z,18.50
2022-10-19T09:18:27.924Z,18.70
2022-10-19T09:22:35.886Z,18.80
2022-10-19T09:26:47.330Z,18.80
2022-10-19T09:30:51.557Z,18.80
2022-10-19T09:34:56.773Z,18.70
2022-10-19T09:38:58.604Z,18.80
2022-10-19T09:43:08.805Z,19.40
2022-10-19T09:47:37.207Z,18.80
2022-10-19T09:51:51.804Z,18.80
2022-10-19T09:56:03.064Z,18.90
2022-10-19T10:00:05.339Z,19.00
2022-10-19T10:04:15.455Z,19.40
2022-10-19T10:08:21.818Z,19.70
2022-10-19T10:12:24.273Z,20.30
2022-10-19T10:16:30.504Z,21.00
2022-10-19T10:20:32.822Z,21.20
2022-10-19T10:24:34.854Z,21.60
2022-10-19T10:28:48.215Z,22.10
2022-10-19T10:32:54.913Z,22.80
2022-10-19T10:36:57.854Z,23.20
2022-10-19T10:41:29.035Z,23.70
2022-10-19T10:45:42.610Z,24.20
2022-10-19T10:49:53.019Z,24.60
2022-10-19T10:54:10.188Z,24.70
2022-10-19T10:58:40.059Z,24.20
2022-10-19T11:03:02.134Z,24.20
2022-10-19T11:07:17.501Z,24.20
2022-10-19T11:11:34.326Z,24.40
2022-10-19T11:16:14.540Z,24.50
2022-10-19T11:20:16.925Z,24.70
2022-10-19T11:24:31.924Z,24.50
2022-10-19T11:28:54.231Z,24.50
2022-10-19T11:33:01.818Z,24.30
2022-10-19T11:37:29.133Z,23.70
2022-10-19T11:42:02.781Z,23.80
2022-10-19T11:46:34.049Z,23.90
2022-10-19T11:50:49.706Z,23.90
2022-10-19T11:55:15.696Z,24.30
2022-10-19T11:59:39.089Z,23.80
2022-10-19T12:03:59.765Z,23.50
2022-10-19T12:08:23.709Z,23.80
2022-10-19T12:12:30.915Z,23.60
2022-10-19T12:16:43.148Z,23.40
2022-10-19T12:20:54.312Z,23.30
2022-10-19T12:24:59.298Z,23.30
2022-10-19T12:29:06.580Z,23.00
2022-10-19T12:33:21.075Z,23.00
2022-10-19T12:37:55.462Z,22.90
2022-10-19T12:42:03.820Z,22.90
2022-10-19T12:46:35.153Z,22.80
2022-10-19T12:50:49.120Z,22.90
2022-10-19T12:54:51.001Z,23.00
2022-10-19T12:59:01.762Z,23.10
2022-10-19T13:03:20.495Z,22.90
2022-10-19T13:07:24.922Z,23.10
2022-10-19T13:11:26.894Z,23.30
2022-10-19T13:15:34.953Z,23.60
2022-10-19T13:19:36.948Z,23.70
2022-10-19T13:23:40.674Z,23.50
2022-10-19T13:27:47.180Z,23.40
2022-10-19T13:31:48.997Z,23.40
2022-10-19T13:36:00.237Z,23.30
2022-10-19T13:40:14.649Z,23.30
2022-10-19T13:44:25.057Z,23.20
2022-10-19T13:49:03.545Z,23.20
2022-10-19T13:53:08.121Z,24.40
2022-10-19T13:57:32.171Z,23.00
2022-10-19T14:01:55.454Z,22.90
2022-10-19T14:06:00.048Z,22.70
2022-10-19T14:10:14.271Z,22.70
2022-10-19T14:14:23.215Z,22.80
2022-10-19T14:18:35.379Z,22.70
2022-10-19T14:22:37.217Z,22.60
2022-10-19T14:26:39.167Z,22.40
2022-10-19T14:30:41.362Z,22.30
2022-10-19T14:34:45.316Z,22.20
2022-10-19T14:38:49.349Z,22.20
2022-10-19T14:42:51.238Z,22.20
2022-10-19T14:46:53.113Z,22.00
2022-10-19T14:50:57.407Z,21.80
2022-10-19T14:55:00.963Z,21.80
2022-10-19T14:59:05.313Z,21.80
2022-10-19T15:03:11.718Z,21.80
2022-10-19T15:07:41.757Z,21.70
2022-10-19T15:11:46.946Z,21.50
2022-10-19T15:15:52.297Z,21.40
2022-10-19T15:19:56.217Z,21.20
2022-10-19T15:24:21.191Z,21.10
2022-10-19T15:28:38.961Z,21.00
2022-10-19T15:32:45.096Z,20.90
2022-10-19T15:37:01.127Z,20.70
2022-10-19T15:41:04.814Z,20.60
2022-10-19T15:45:32.862Z,20.40
2022-10-19T15:49:44.370Z,20.30
2022-10-19T15:53:46.218Z,20.20
2022-10-19T15:57:59.147Z,19.70
2022-10-19T16:02:01.060Z,19.30
2022-10-19T16:06:03.010Z,18.70
2022-10-19T16:10:05.775Z,18.30
2022-10-19T16:14:07.754Z,18.30
2022-10-19T16:18:11.242Z,18.20
2022-10-19T16:22:14.464Z,17.90
2022-10-19T16:26:17.470Z,17.70
2022-10-19T16:30:19.517Z,17.60
2022-10-19T16:34:21.531Z,17.40
2022-10-19T16:38:23.468Z,17.10
2022-10-19T16:42:29.689Z,16.90
2022-10-19T16:46:32.649Z,16.70
2022-10-19T16:50:34.554Z,16.70
2022-10-19T16:54:36.567Z,16.50
2022-10-19T16:58:39.783Z,16.30
2022-10-19T17:02:44.324Z,16.00
2022-10-19T17:06:48.308Z,15.90
2022-10-19T17:10:50.149Z,15.60
2022-10-19T17:14:52.065Z,15.40
2022-10-19T17:18:58.498Z,15.30
2022-10-19T17:23:00.324Z,15.40
2022-10-19T17:27:03.426Z,15.30
2022-10-19T17:31:11.442Z,15.20
2022-10-19T17:35:13.155Z,15.10
2022-10-19T17:39:24.437Z,15.20
2022-10-19T17:43:29.465Z,15.10
2022-10-19T17:47:31.373Z,15.00
2022-10-19T17:51:35.248Z,15.00
2022-10-19T17:55:37.320Z,15.00
2022-10-19T17:59:52.080Z,14.80
2022-10-19T18:03:54.883Z,14.70
2022-10-19T18:07:56.710Z,14.60
2022-10-19T18:11:59.929Z,14.60
2022-10-19T18:16:19.263Z,14.50
2022-10-19T18:20:21.074Z,14.40
2022-10-19T18:24:23.011Z,14.50
2022-10-19T18:28:24.871Z,14.70
2022-10-19T18:32:26.711Z,14.70
2022-10-19T18:36:29.435Z,14.60
2022-10-19T18:40:33.762Z,14.70
2022-10-19T18:44:35.591Z,14.90
2022-10-19T18:48:38.496Z,14.60
2022-10-19T18:52:40.510Z,14.40
2022-10-19T18:56:42.356Z,12.40
2022-10-19T19:00:45.671Z,14.30
2022-10-19T19:04:47.761Z,14.30
2022-10-19T19:08:49.730Z,14.30
2022-10-19T19:12:51.877Z,14.10
2022-10-19T19:16:53.733Z,14.20
2022-10-19T19:20:55.577Z,14.10
2022-10-19T19:24:57.518Z,13.90
2022-10-19T19:28:59.442Z,13.80
2022-10-19T19:33:01.292Z,13.90
2022-10-19T19:37:05.107Z,13.90
2022-10-19T19:41:13.568Z,14.10
2022-10-19T19:45:15.474Z,13.80
2022-10-19T19:49:17.396Z,13.80
2022-10-19T19:53:19.427Z,13.70
2022-10-19T19:57:22.483Z,13.40
2022-10-19T20:01:25.001Z,13.50
2022-10-19T20:05:28.434Z,13.50
2022-10-19T20:09:30.435Z,13.50
2022-10-19T20:13:32.553Z,13.40
2022-10-19T20:17:34.879Z,13.40
2022-10-19T20:21:37.032Z,13.20
2022-10-19T20:25:38.862Z,12.80
2022-10-19T20:29:40.717Z,12.70
2022-10-19T20:33:44.459Z,12.50
2022-10-19T20:37:49.622Z,12.60
2022-10-19T20:41:51.435Z,12.80
2022-10-19T20:45:53.369Z,12.60
2022-10-19T20:49:55.238Z,12.60
2022-10-19T20:53:58.834Z,12.70
2022-10-19T20:58:00.649Z,12.80
2022-10-19T21:02:02.567Z,12.70
2022-10-19T21:06:07.024Z,12.60
2022-10-19T21:10:09.220Z,12.50
2022-10-19T21:14:13.464Z,12.40
2022-10-19T21:18:15.316Z,12.50
2022-10-19T21:22:17.142Z,12.10
2022-10-19T21:26:18.999Z,11.90
2022-10-19T21:30:20.902Z,12.10
2022-10-19T21:34:28.603Z,12.10
2022-10-19T21:38:31.025Z,12.20
2022-10-19T21:42:32.848Z,12.20
2022-10-19T21:46:34.974Z,12.10
2022-10-19T21:50:36.826Z,11.90
2022-10-19T21:54:38.732Z,12.00
2022-10-19T21:58:52.380Z,12.10
2022-10-19T22:02:54.308Z,12.10
2022-10-19T22:06:56.227Z,12.30
2022-10-19T22:10:58.254Z,12.00
2022-10-19T22:15:00.100Z,12.10
2022-10-19T22:19:02.017Z,11.80
2022-10-19T22:23:05.375Z,12.00
2022-10-19T22:27:07.197Z,12.10
2022-10-19T22:31:09.171Z,12.00
2022-10-19T22:35:10.989Z,12.50
2022-10-19T22:39:13.480Z,12.50
2022-10-19T22:43:15.458Z,12.70
2022-10-19T22:47:17.325Z,12.40
2022-10-19T22:51:19.158Z,12.70
2022-10-19T22:55:21.008Z,12.20
2022-10-19T22:59:22.856Z,12.10
2022-10-19T23:03:24.739Z,12.00
2022-10-19T23:07:26.551Z,12.00
2022-10-19T23:11:28.525Z,12.00
2022-10-19T23:15:30.383Z,12.20
2022-10-19T23:19:32.223Z,12.60
2022-10-19T23:23:35.007Z,12.90
2022-10-19T23:27:37.372Z,12.80
2022-10-19T23:31:39.419Z,12.60
2022-10-19T23:35:41.284Z,12.20
2022-10-19T23:39:43.194Z,12.20
2022-10-19T23:43:45.409Z,12.40
2022-10-19T23:47:47.228Z,12.40
2022-10-19T23:51:49.041Z,12.00
2022-10-19T23:55:50.872Z,12.10
2022-10-19T23:59:52.664Z,12.10
